sensor_id;sensor_type;location;lat;lon;timestamp;temperature;humidity
17632;DHT22;8934;51.194;17.150;2022-07-03T00:00:42;12.40;99.90
17632;DHT22;8934;51.194;17.150;2022-07-03T00:03:30;12.30;99.90
17632;DHT22;8934;51.194;17.150;2022-07-03T00:06:18;12.30;99.90
17632;DHT22;8934;51.194;17.150;2022-07-03T00:09:06;12.30;99.90
17632;DHT22;8934;51.194;17.150;2022-07-03T00:11:54;12.30;99.90
17632;DHT22;8934;51.194;17.150;2022-07-03T00:14:42;12.20;99.90
17632;DHT22;8934;51.194;17.150;2022-07-03T00:17:31;12.20;99.90
17632;DHT22;8934;51.194;17.150;2022-07-03T00:20:19;12.20;99.90
17632;DHT22;8934;51.194;17.150;2022-07-03T00:23:09;12.20;99.90
17632;DHT22;8934;51.194;17.150;2022-07-03T00:25:58;12.20;99.90
17632;DHT22;8934;51.194;17.150;2022-07-03T00:28:49;12.20;99.90
17632;DHT22;8934;51.194;17.150;2022-07-03T00:31:40;12.10;99.90
17632;DHT22;8934;51.194;17.150;2022-07-03T00:34:29;12.10;99.90
17632;DHT22;8934;51.194;17.150;2022-07-03T00:37:17;12.10;99.90
17632;DHT22;8934;51.194;17.150;2022-07-03T00:40:06;12.00;99.90
17632;DHT22;8934;51.194;17.150;2022-07-03T00:42:55;12.00;99.90
17632;DHT22;8934;51.194;17.150;2022-07-03T00:45:47;12.00;99.90
17632;DHT22;8934;51.194;17.150;2022-07-03T00:48:37;11.90;99.90
17632;DHT22;8934;51.194;17.150;2022-07-03T00:51:27;11.90;99.90
17632;DHT22;8934;51.194;17.150;2022-07-03T00:54:16;11.90;99.90
17632;DHT22;8934;51.194;17.150;2022-07-03T00:57:12;11.90;99.90
17632;DHT22;8934;51.194;17.150;2022-07-03T01:00:00;11.80;99.90
17632;DHT22;8934;51.194;17.150;2022-07-03T01:02:53;11.80;99.90
17632;DHT22;8934;51.194;17.150;2022-07-03T01:05:45;11.70;99.90
17632;DHT22;8934;51.194;17.150;2022-07-03T01:08:42;11.70;99.90
17632;DHT22;8934;51.194;17.150;2022-07-03T01:11:37;11.60;99.90
17632;DHT22;8934;51.194;17.150;2022-07-03T01:14:31;11.60;99.90
17632;DHT22;8934;51.194;17.150;2022-07-03T01:17:24;11.60;99.90
17632;DHT22;8934;51.194;17.150;2022-07-03T01:20:12;11.50;99.90
17632;DHT22;8934;51.194;17.150;2022-07-03T01:23:30;11.50;99.90
17632;DHT22;8934;51.194;17.150;2022-07-03T01:26:19;11.40;99.90
17632;DHT22;8934;51.194;17.150;2022-07-03T01:29:14;11.40;99.90
17632;DHT22;8934;51.194;17.150;2022-07-03T01:32:05;11.30;99.90
17632;DHT22;8934;51.194;17.150;2022-07-03T01:34:53;11.30;99.90
17632;DHT22;8934;51.194;17.150;2022-07-03T01:37:42;11.30;99.90
17632;DHT22;8934;51.194;17.150;2022-07-03T01:40:34;11.30;99.90
17632;DHT22;8934;51.194;17.150;2022-07-03T01:43:27;11.20;99.90
17632;DHT22;8934;51.194;17.150;2022-07-03T01:46:17;11.20;99.90
17632;DHT22;8934;51.194;17.150;2022-07-03T01:49:07;11.20;99.90
17632;DHT22;8934;51.194;17.150;2022-07-03T01:51:56;11.20;99.90
17632;DHT22;8934;51.194;17.150;2022-07-03T01:54:46;11.20;99.90
17632;DHT22;8934;51.194;17.150;2022-07-03T01:57:41;11.10;99.90
17632;DHT22;8934;51.194;17.150;2022-07-03T02:00:40;11.10;99.90
17632;DHT22;8934;51.194;17.150;2022-07-03T02:03:30;11.10;99.90
17632;DHT22;8934;51.194;17.150;2022-07-03T02:06:26;11.10;99.90
17632;DHT22;8934;51.194;17.150;2022-07-03T02:09:21;11.10;99.90
17632;DHT22;8934;51.194;17.150;2022-07-03T02:12:13;11.10;99.90
17632;DHT22;8934;51.194;17.150;2022-07-03T02:15:04;11.00;99.90
17632;DHT22;8934;51.194;17.150;2022-07-03T02:17:54;11.00;99.90
17632;DHT22;8934;51.194;17.150;2022-07-03T02:20:46;11.00;99.90
17632;DHT22;8934;51.194;17.150;2022-07-03T02:23:39;11.00;99.90
17632;DHT22;8934;51.194;17.150;2022-07-03T02:26:32;10.90;99.90
17632;DHT22;8934;51.194;17.150;2022-07-03T02:29:26;10.90;99.90
17632;DHT22;8934;51.194;17.150;2022-07-03T02:32:20;10.90;99.90
17632;DHT22;8934;51.194;17.150;2022-07-03T02:35:11;10.90;99.90
17632;DHT22;8934;51.194;17.150;2022-07-03T02:38:04;10.80;99.90
17632;DHT22;8934;51.194;17.150;2022-07-03T02:40:57;10.80;99.90
17632;DHT22;8934;51.194;17.150;2022-07-03T02:43:54;10.80;99.90
17632;DHT22;8934;51.194;17.150;2022-07-03T02:46:52;10.80;99.90
17632;DHT22;8934;51.194;17.150;2022-07-03T02:49:43;10.80;99.90
17632;DHT22;8934;51.194;17.150;2022-07-03T02:52:44;10.80;99.90
17632;DHT22;8934;51.194;17.150;2022-07-03T02:55:44;10.80;99.90
17632;DHT22;8934;51.194;17.150;2022-07-03T02:58:49;10.80;99.90
17632;DHT22;8934;51.194;17.150;2022-07-03T03:01:47;10.80;99.90
17632;DHT22;8934;51.194;17.150;2022-07-03T03:04:38;10.80;99.90
17632;DHT22;8934;51.194;17.150;2022-07-03T03:07:34;10.90;99.90
17632;DHT22;8934;51.194;17.150;2022-07-03T03:10:24;11.00;99.90
17632;DHT22;8934;51.194;17.150;2022-07-03T03:13:14;11.10;99.90
17632;DHT22;8934;51.194;17.150;2022-07-03T03:16:06;11.10;99.90
17632;DHT22;8934;51.194;17.150;2022-07-03T03:18:54;11.10;99.90
17632;DHT22;8934;51.194;17.150;2022-07-03T03:21:50;11.20;99.90
17632;DHT22;8934;51.194;17.150;2022-07-03T03:24:39;11.20;99.90
17632;DHT22;8934;51.194;17.150;2022-07-03T03:27:28;11.10;99.90
17632;DHT22;8934;51.194;17.150;2022-07-03T03:30:16;11.10;99.90
17632;DHT22;8934;51.194;17.150;2022-07-03T03:33:05;11.10;99.90
17632;DHT22;8934;51.194;17.150;2022-07-03T03:35:54;11.10;99.90
17632;DHT22;8934;51.194;17.150;2022-07-03T03:38:41;11.20;99.90
17632;DHT22;8934;51.194;17.150;2022-07-03T03:41:30;11.20;99.90
17632;DHT22;8934;51.194;17.150;2022-07-03T03:44:19;11.20;99.90
17632;DHT22;8934;51.194;17.150;2022-07-03T03:47:06;11.30;99.90
17632;DHT22;8934;51.194;17.150;2022-07-03T03:49:55;11.40;99.90
17632;DHT22;8934;51.194;17.150;2022-07-03T03:52:42;11.60;99.90
17632;DHT22;8934;51.194;17.150;2022-07-03T03:55:30;11.80;99.90
17632;DHT22;8934;51.194;17.150;2022-07-03T03:58:37;11.90;99.90
17632;DHT22;8934;51.194;17.150;2022-07-03T04:01:26;12.10;99.90
17632;DHT22;8934;51.194;17.150;2022-07-03T04:04:14;12.20;99.90
17632;DHT22;8934;51.194;17.150;2022-07-03T04:07:04;12.30;99.90
17632;DHT22;8934;51.194;17.150;2022-07-03T04:09:52;12.50;99.90
17632;DHT22;8934;51.194;17.150;2022-07-03T04:12:39;12.70;99.90
17632;DHT22;8934;51.194;17.150;2022-07-03T04:15:27;12.80;99.90
17632;DHT22;8934;51.194;17.150;2022-07-03T04:18:16;12.90;99.90
17632;DHT22;8934;51.194;17.150;2022-07-03T04:21:04;13.10;99.90
17632;DHT22;8934;51.194;17.150;2022-07-03T04:23:52;13.20;99.90
17632;DHT22;8934;51.194;17.150;2022-07-03T04:26:39;13.40;99.90
17632;DHT22;8934;51.194;17.150;2022-07-03T04:29:27;13.60;99.90
17632;DHT22;8934;51.194;17.150;2022-07-03T04:32:14;13.70;99.90
17632;DHT22;8934;51.194;17.150;2022-07-03T04:35:05;13.80;99.90
17632;DHT22;8934;51.194;17.150;2022-07-03T04:37:53;13.90;99.90
17632;DHT22;8934;51.194;17.150;2022-07-03T04:40:40;14.10;99.90
17632;DHT22;8934;51.194;17.150;2022-07-03T04:43:28;14.10;99.90
17632;DHT22;8934;51.194;17.150;2022-07-03T04:46:16;14.30;99.90
17632;DHT22;8934;51.194;17.150;2022-07-03T04:49:03;14.40;99.90
17632;DHT22;8934;51.194;17.150;2022-07-03T04:51:52;14.50;99.90
17632;DHT22;8934;51.194;17.150;2022-07-03T04:54:42;14.60;99.90
17632;DHT22;8934;51.194;17.150;2022-07-03T04:57:29;14.80;99.90
17632;DHT22;8934;51.194;17.150;2022-07-03T05:00:17;14.90;99.90
17632;DHT22;8934;51.194;17.150;2022-07-03T05:03:04;15.00;99.90
17632;DHT22;8934;51.194;17.150;2022-07-03T05:05:52;15.20;99.90
17632;DHT22;8934;51.194;17.150;2022-07-03T05:08:41;15.30;99.90
17632;DHT22;8934;51.194;17.150;2022-07-03T05:11:28;15.40;99.90
17632;DHT22;8934;51.194;17.150;2022-07-03T05:14:16;15.50;99.90
17632;DHT22;8934;51.194;17.150;2022-07-03T05:17:04;15.60;99.90
17632;DHT22;8934;51.194;17.150;2022-07-03T05:19:52;15.80;99.90
17632;DHT22;8934;51.194;17.150;2022-07-03T05:23:01;16.00;99.90
17632;DHT22;8934;51.194;17.150;2022-07-03T05:25:50;16.20;99.90
17632;DHT22;8934;51.194;17.150;2022-07-03T05:28:38;16.50;99.90
17632;DHT22;8934;51.194;17.150;2022-07-03T05:31:26;16.70;99.90
17632;DHT22;8934;51.194;17.150;2022-07-03T05:34:13;16.90;99.90
17632;DHT22;8934;51.194;17.150;2022-07-03T05:37:00;17.00;99.90
17632;DHT22;8934;51.194;17.150;2022-07-03T05:39:48;17.10;99.90
17632;DHT22;8934;51.194;17.150;2022-07-03T05:42:38;17.20;99.90
17632;DHT22;8934;51.194;17.150;2022-07-03T05:45:25;17.30;99.90
17632;DHT22;8934;51.194;17.150;2022-07-03T05:48:13;17.50;99.90
17632;DHT22;8934;51.194;17.150;2022-07-03T05:51:01;17.60;99.90
17632;DHT22;8934;51.194;17.150;2022-07-03T05:53:48;17.70;99.90
17632;DHT22;8934;51.194;17.150;2022-07-03T05:56:36;17.80;99.90
17632;DHT22;8934;51.194;17.150;2022-07-03T05:59:25;17.90;99.90
17632;DHT22;8934;51.194;17.150;2022-07-03T06:02:12;18.00;99.90
17632;DHT22;8934;51.194;17.150;2022-07-03T06:05:00;18.10;99.90
17632;DHT22;8934;51.194;17.150;2022-07-03T06:07:48;18.10;99.90
17632;DHT22;8934;51.194;17.150;2022-07-03T06:10:36;18.20;99.90
17632;DHT22;8934;51.194;17.150;2022-07-03T06:13:23;18.40;99.90
17632;DHT22;8934;51.194;17.150;2022-07-03T06:16:12;18.60;99.90
17632;DHT22;8934;51.194;17.150;2022-07-03T06:19:00;18.80;99.90
17632;DHT22;8934;51.194;17.150;2022-07-03T06:21:48;19.10;99.90
17632;DHT22;8934;51.194;17.150;2022-07-03T06:24:35;19.30;99.90
17632;DHT22;8934;51.194;17.150;2022-07-03T06:27:23;19.50;99.90
17632;DHT22;8934;51.194;17.150;2022-07-03T06:30:11;19.70;99.90
17632;DHT22;8934;51.194;17.150;2022-07-03T06:33:00;19.80;99.90
17632;DHT22;8934;51.194;17.150;2022-07-03T06:35:47;19.90;99.90
17632;DHT22;8934;51.194;17.150;2022-07-03T06:38:35;20.00;99.90
17632;DHT22;8934;51.194;17.150;2022-07-03T06:41:23;20.10;99.90
17632;DHT22;8934;51.194;17.150;2022-07-03T06:44:11;20.30;99.90
17632;DHT22;8934;51.194;17.150;2022-07-03T06:46:58;20.50;99.90
17632;DHT22;8934;51.194;17.150;2022-07-03T06:49:50;20.70;99.90
17632;DHT22;8934;51.194;17.150;2022-07-03T06:52:38;20.80;99.90
17632;DHT22;8934;51.194;17.150;2022-07-03T06:55:25;20.90;99.90
17632;DHT22;8934;51.194;17.150;2022-07-03T06:58:13;21.00;99.90
17632;DHT22;8934;51.194;17.150;2022-07-03T07:01:03;21.00;99.90
17632;DHT22;8934;51.194;17.150;2022-07-03T07:03:51;21.20;99.90
17632;DHT22;8934;51.194;17.150;2022-07-03T07:06:40;21.40;99.90
17632;DHT22;8934;51.194;17.150;2022-07-03T07:09:27;21.70;99.90
17632;DHT22;8934;51.194;17.150;2022-07-03T07:12:15;21.90;99.90
17632;DHT22;8934;51.194;17.150;2022-07-03T07:15:04;22.20;99.90
17632;DHT22;8934;51.194;17.150;2022-07-03T07:18:24;22.50;99.90
17632;DHT22;8934;51.194;17.150;2022-07-03T07:21:11;22.70;99.90
17632;DHT22;8934;51.194;17.150;2022-07-03T07:24:00;22.80;99.90
17632;DHT22;8934;51.194;17.150;2022-07-03T07:26:48;22.90;99.90
17632;DHT22;8934;51.194;17.150;2022-07-03T07:29:36;23.00;99.90
17632;DHT22;8934;51.194;17.150;2022-07-03T07:32:23;23.10;99.90
17632;DHT22;8934;51.194;17.150;2022-07-03T07:35:11;23.20;99.90
17632;DHT22;8934;51.194;17.150;2022-07-03T07:38:00;23.30;99.90
17632;DHT22;8934;51.194;17.150;2022-07-03T07:41:04;23.40;99.90
17632;DHT22;8934;51.194;17.150;2022-07-03T07:43:51;23.30;99.90
17632;DHT22;8934;51.194;17.150;2022-07-03T07:46:39;23.10;99.90
17632;DHT22;8934;51.194;17.150;2022-07-03T07:49:26;23.30;99.90
17632;DHT22;8934;51.194;17.150;2022-07-03T07:52:14;23.60;99.90
17632;DHT22;8934;51.194;17.150;2022-07-03T07:55:01;24.00;99.90
17632;DHT22;8934;51.194;17.150;2022-07-03T07:57:51;24.20;99.90
17632;DHT22;8934;51.194;17.150;2022-07-03T08:00:39;24.40;99.90
17632;DHT22;8934;51.194;17.150;2022-07-03T08:03:46;24.80;99.90
17632;DHT22;8934;51.194;17.150;2022-07-03T08:06:52;25.00;99.90
17632;DHT22;8934;51.194;17.150;2022-07-03T08:09:39;24.60;99.90
17632;DHT22;8934;51.194;17.150;2022-07-03T08:12:27;24.60;99.90
17632;DHT22;8934;51.194;17.150;2022-07-03T08:15:16;24.80;99.90
17632;DHT22;8934;51.194;17.150;2022-07-03T08:18:27;25.10;99.90
17632;DHT22;8934;51.194;17.150;2022-07-03T08:21:14;25.40;99.90
17632;DHT22;8934;51.194;17.150;2022-07-03T08:24:02;25.70;99.90
17632;DHT22;8934;51.194;17.150;2022-07-03T08:26:50;25.90;99.90
17632;DHT22;8934;51.194;17.150;2022-07-03T08:29:39;26.00;99.90
17632;DHT22;8934;51.194;17.150;2022-07-03T08:32:28;25.90;99.90
17632;DHT22;8934;51.194;17.150;2022-07-03T08:35:16;25.80;99.90
17632;DHT22;8934;51.194;17.150;2022-07-03T08:38:04;25.60;99.90
17632;DHT22;8934;51.194;17.150;2022-07-03T08:40:52;25.40;99.90
17632;DHT22;8934;51.194;17.150;2022-07-03T08:43:41;25.30;99.90
17632;DHT22;8934;51.194;17.150;2022-07-03T08:46:31;25.30;99.90
17632;DHT22;8934;51.194;17.150;2022-07-03T08:49:20;25.10;99.90
17632;DHT22;8934;51.194;17.150;2022-07-03T08:52:11;24.80;99.90
17632;DHT22;8934;51.194;17.150;2022-07-03T08:54:59;24.80;99.90
17632;DHT22;8934;51.194;17.150;2022-07-03T08:57:47;24.90;99.90
17632;DHT22;8934;51.194;17.150;2022-07-03T09:00:36;25.20;99.90
17632;DHT22;8934;51.194;17.150;2022-07-03T09:03:25;25.50;99.90
17632;DHT22;8934;51.194;17.150;2022-07-03T09:06:16;25.70;99.90
17632;DHT22;8934;51.194;17.150;2022-07-03T09:09:06;26.00;99.90
17632;DHT22;8934;51.194;17.150;2022-07-03T09:11:54;26.60;99.90
17632;DHT22;8934;51.194;17.150;2022-07-03T09:14:41;26.70;99.90
17632;DHT22;8934;51.194;17.150;2022-07-03T09:17:31;26.70;99.90
17632;DHT22;8934;51.194;17.150;2022-07-03T09:20:28;26.60;99.90
17632;DHT22;8934;51.194;17.150;2022-07-03T09:23:18;26.30;99.90
17632;DHT22;8934;51.194;17.150;2022-07-03T09:26:07;25.90;99.90
17632;DHT22;8934;51.194;17.150;2022-07-03T09:28:59;25.70;99.90
17632;DHT22;8934;51.194;17.150;2022-07-03T09:31:54;25.70;99.90
17632;DHT22;8934;51.194;17.150;2022-07-03T09:34:42;26.20;99.90
17632;DHT22;8934;51.194;17.150;2022-07-03T09:37:31;26.90;99.90
17632;DHT22;8934;51.194;17.150;2022-07-03T09:40:22;27.70;99.90
17632;DHT22;8934;51.194;17.150;2022-07-03T09:43:10;28.10;99.90
17632;DHT22;8934;51.194;17.150;2022-07-03T09:45:58;28.50;99.90
17632;DHT22;8934;51.194;17.150;2022-07-03T09:48:46;28.40;99.90
17632;DHT22;8934;51.194;17.150;2022-07-03T09:51:34;28.10;99.90
17632;DHT22;8934;51.194;17.150;2022-07-03T09:54:22;28.00;99.90
17632;DHT22;8934;51.194;17.150;2022-07-03T09:57:14;28.10;99.90
17632;DHT22;8934;51.194;17.150;2022-07-03T10:00:15;28.50;99.90
17632;DHT22;8934;51.194;17.150;2022-07-03T10:03:04;28.70;98.70
17632;DHT22;8934;51.194;17.150;2022-07-03T10:06:03;29.00;99.90
17632;DHT22;8934;51.194;17.150;2022-07-03T10:08:50;29.50;99.90
17632;DHT22;8934;51.194;17.150;2022-07-03T10:11:38;29.60;99.90
17632;DHT22;8934;51.194;17.150;2022-07-03T10:14:28;29.40;99.90
17632;DHT22;8934;51.194;17.150;2022-07-03T10:17:16;29.30;97.80
17632;DHT22;8934;51.194;17.150;2022-07-03T10:20:13;29.50;99.10
17632;DHT22;8934;51.194;17.150;2022-07-03T10:23:02;29.90;96.50
17632;DHT22;8934;51.194;17.150;2022-07-03T10:25:50;30.30;95.80
17632;DHT22;8934;51.194;17.150;2022-07-03T10:28:38;30.70;95.00
17632;DHT22;8934;51.194;17.150;2022-07-03T10:31:28;30.80;93.50
17632;DHT22;8934;51.194;17.150;2022-07-03T10:34:17;31.00;91.70
17632;DHT22;8934;51.194;17.150;2022-07-03T10:37:06;31.10;92.70
17632;DHT22;8934;51.194;17.150;2022-07-03T10:40:31;31.20;94.60
17632;DHT22;8934;51.194;17.150;2022-07-03T10:43:41;31.20;93.70
17632;DHT22;8934;51.194;17.150;2022-07-03T10:46:49;31.00;93.50
17632;DHT22;8934;51.194;17.150;2022-07-03T10:50:00;31.10;92.90
17632;DHT22;8934;51.194;17.150;2022-07-03T10:52:48;30.90;91.80
17632;DHT22;8934;51.194;17.150;2022-07-03T10:56:01;31.00;90.00
17632;DHT22;8934;51.194;17.150;2022-07-03T10:58:56;30.20;88.70
17632;DHT22;8934;51.194;17.150;2022-07-03T11:01:45;30.10;92.80
17632;DHT22;8934;51.194;17.150;2022-07-03T11:05:08;29.80;91.10
17632;DHT22;8934;51.194;17.150;2022-07-03T11:08:06;29.20;94.30
17632;DHT22;8934;51.194;17.150;2022-07-03T11:11:33;29.10;96.10
17632;DHT22;8934;51.194;17.150;2022-07-03T11:14:38;29.60;95.80
17632;DHT22;8934;51.194;17.150;2022-07-03T11:17:26;30.40;93.50
17632;DHT22;8934;51.194;17.150;2022-07-03T11:20:26;31.00;91.90
17632;DHT22;8934;51.194;17.150;2022-07-03T11:23:17;31.10;92.10
17632;DHT22;8934;51.194;17.150;2022-07-03T11:26:21;31.70;93.10
17632;DHT22;8934;51.194;17.150;2022-07-03T11:29:25;32.10;90.80
17632;DHT22;8934;51.194;17.150;2022-07-03T11:32:52;32.30;89.00
17632;DHT22;8934;51.194;17.150;2022-07-03T11:35:52;31.50;88.90
17632;DHT22;8934;51.194;17.150;2022-07-03T11:38:41;30.50;90.50
17632;DHT22;8934;51.194;17.150;2022-07-03T11:41:30;30.00;91.60
17632;DHT22;8934;51.194;17.150;2022-07-03T11:44:19;29.70;92.90
17632;DHT22;8934;51.194;17.150;2022-07-03T11:47:08;29.70;91.80
17632;DHT22;8934;51.194;17.150;2022-07-03T11:49:56;29.50;92.30
17632;DHT22;8934;51.194;17.150;2022-07-03T11:52:45;29.20;92.10
17632;DHT22;8934;51.194;17.150;2022-07-03T11:55:33;29.10;94.90
17632;DHT22;8934;51.194;17.150;2022-07-03T11:58:21;29.30;93.30
17632;DHT22;8934;51.194;17.150;2022-07-03T12:01:09;29.80;91.80
17632;DHT22;8934;51.194;17.150;2022-07-03T12:04:04;30.00;93.00
17632;DHT22;8934;51.194;17.150;2022-07-03T12:06:56;29.60;92.50
17632;DHT22;8934;51.194;17.150;2022-07-03T12:09:45;29.50;91.40
17632;DHT22;8934;51.194;17.150;2022-07-03T12:12:37;29.30;92.40
17632;DHT22;8934;51.194;17.150;2022-07-03T12:15:24;29.00;93.40
17632;DHT22;8934;51.194;17.150;2022-07-03T12:18:13;28.90;92.70
17632;DHT22;8934;51.194;17.150;2022-07-03T12:21:04;29.40;91.30
17632;DHT22;8934;51.194;17.150;2022-07-03T12:23:53;29.90;93.90
17632;DHT22;8934;51.194;17.150;2022-07-03T12:26:41;30.10;92.00
17632;DHT22;8934;51.194;17.150;2022-07-03T12:29:29;30.40;88.30
17632;DHT22;8934;51.194;17.150;2022-07-03T12:32:17;30.00;88.20
17632;DHT22;8934;51.194;17.150;2022-07-03T12:35:06;29.60;92.00
17632;DHT22;8934;51.194;17.150;2022-07-03T12:37:54;29.60;92.70
17632;DHT22;8934;51.194;17.150;2022-07-03T12:40:42;30.10;92.40
17632;DHT22;8934;51.194;17.150;2022-07-03T12:43:37;30.20;90.80
17632;DHT22;8934;51.194;17.150;2022-07-03T12:46:26;29.90;90.60
17632;DHT22;8934;51.194;17.150;2022-07-03T12:49:15;30.00;90.50
17632;DHT22;8934;51.194;17.150;2022-07-03T12:52:03;30.10;91.80
17632;DHT22;8934;51.194;17.150;2022-07-03T12:54:53;30.00;87.20
17632;DHT22;8934;51.194;17.150;2022-07-03T12:57:40;30.20;90.20
17632;DHT22;8934;51.194;17.150;2022-07-03T13:00:47;30.60;88.90
17632;DHT22;8934;51.194;17.150;2022-07-03T13:03:36;31.30;90.20
17632;DHT22;8934;51.194;17.150;2022-07-03T13:06:27;32.00;90.70
17632;DHT22;8934;51.194;17.150;2022-07-03T13:09:15;32.40;85.10
17632;DHT22;8934;51.194;17.150;2022-07-03T13:12:03;32.50;82.90
17632;DHT22;8934;51.194;17.150;2022-07-03T13:14:57;32.30;86.30
17632;DHT22;8934;51.194;17.150;2022-07-03T13:17:58;31.90;81.50
17632;DHT22;8934;51.194;17.150;2022-07-03T13:20:46;32.20;84.00
17632;DHT22;8934;51.194;17.150;2022-07-03T13:23:34;32.60;84.60
17632;DHT22;8934;51.194;17.150;2022-07-03T13:26:22;33.10;85.50
17632;DHT22;8934;51.194;17.150;2022-07-03T13:29:09;33.20;83.20
17632;DHT22;8934;51.194;17.150;2022-07-03T13:31:57;33.20;86.20
17632;DHT22;8934;51.194;17.150;2022-07-03T13:34:46;33.40;86.30
17632;DHT22;8934;51.194;17.150;2022-07-03T13:37:34;33.60;83.10
17632;DHT22;8934;51.194;17.150;2022-07-03T13:40:22;33.80;82.50
17632;DHT22;8934;51.194;17.150;2022-07-03T13:43:09;34.30;76.90
17632;DHT22;8934;51.194;17.150;2022-07-03T13:45:57;34.40;80.10
17632;DHT22;8934;51.194;17.150;2022-07-03T13:48:47;34.30;75.30
17632;DHT22;8934;51.194;17.150;2022-07-03T13:51:36;34.30;75.30
17632;DHT22;8934;51.194;17.150;2022-07-03T13:54:24;33.90;73.10
17632;DHT22;8934;51.194;17.150;2022-07-03T13:57:12;33.50;74.50
17632;DHT22;8934;51.194;17.150;2022-07-03T14:00:00;33.50;78.80
17632;DHT22;8934;51.194;17.150;2022-07-03T14:02:54;33.90;74.60
17632;DHT22;8934;51.194;17.150;2022-07-03T14:05:42;34.00;73.10
17632;DHT22;8934;51.194;17.150;2022-07-03T14:08:31;33.90;73.90
17632;DHT22;8934;51.194;17.150;2022-07-03T14:11:19;33.10;70.50
17632;DHT22;8934;51.194;17.150;2022-07-03T14:14:06;32.80;75.90
17632;DHT22;8934;51.194;17.150;2022-07-03T14:16:54;33.00;75.90
17632;DHT22;8934;51.194;17.150;2022-07-03T14:19:42;33.30;79.10
17632;DHT22;8934;51.194;17.150;2022-07-03T14:22:29;33.90;78.10
17632;DHT22;8934;51.194;17.150;2022-07-03T14:25:18;34.00;71.50
17632;DHT22;8934;51.194;17.150;2022-07-03T14:28:06;34.10;75.90
17632;DHT22;8934;51.194;17.150;2022-07-03T14:31:12;33.90;78.90
17632;DHT22;8934;51.194;17.150;2022-07-03T14:34:16;33.60;73.80
17632;DHT22;8934;51.194;17.150;2022-07-03T14:37:04;33.40;77.30
17632;DHT22;8934;51.194;17.150;2022-07-03T14:39:52;33.50;75.30
17632;DHT22;8934;51.194;17.150;2022-07-03T14:42:41;33.30;79.70
17632;DHT22;8934;51.194;17.150;2022-07-03T14:45:29;33.70;79.40
17632;DHT22;8934;51.194;17.150;2022-07-03T14:48:16;34.20;76.90
17632;DHT22;8934;51.194;17.150;2022-07-03T14:51:04;34.30;70.50
17632;DHT22;8934;51.194;17.150;2022-07-03T14:53:52;34.40;70.70
17632;DHT22;8934;51.194;17.150;2022-07-03T14:56:47;34.60;68.70
17632;DHT22;8934;51.194;17.150;2022-07-03T14:59:44;34.60;69.80
17632;DHT22;8934;51.194;17.150;2022-07-03T15:02:44;34.80;70.90
17632;DHT22;8934;51.194;17.150;2022-07-03T15:05:33;34.80;73.40
17632;DHT22;8934;51.194;17.150;2022-07-03T15:11:34;35.50;73.60
17632;DHT22;8934;51.194;17.150;2022-07-03T15:14:43;35.70;72.80
17632;DHT22;8934;51.194;17.150;2022-07-03T15:17:53;35.60;71.40
17632;DHT22;8934;51.194;17.150;2022-07-03T15:20:41;35.80;68.00
17632;DHT22;8934;51.194;17.150;2022-07-03T15:23:29;36.00;68.00
17632;DHT22;8934;51.194;17.150;2022-07-03T15:26:19;36.20;71.60
17632;DHT22;8934;51.194;17.150;2022-07-03T15:29:07;36.20;67.10
17632;DHT22;8934;51.194;17.150;2022-07-03T15:32:01;36.40;69.60
17632;DHT22;8934;51.194;17.150;2022-07-03T15:34:48;36.70;70.80
17632;DHT22;8934;51.194;17.150;2022-07-03T15:37:52;36.90;68.60
17632;DHT22;8934;51.194;17.150;2022-07-03T15:40:46;36.40;65.10
17632;DHT22;8934;51.194;17.150;2022-07-03T15:43:48;36.00;70.00
17632;DHT22;8934;51.194;17.150;2022-07-03T15:46:47;35.90;68.70
17632;DHT22;8934;51.194;17.150;2022-07-03T15:49:42;35.70;70.20
17632;DHT22;8934;51.194;17.150;2022-07-03T15:52:30;35.80;66.80
17632;DHT22;8934;51.194;17.150;2022-07-03T15:55:19;36.00;69.80
17632;DHT22;8934;51.194;17.150;2022-07-03T15:58:11;36.60;66.40
17632;DHT22;8934;51.194;17.150;2022-07-03T16:01:02;36.80;63.50
17632;DHT22;8934;51.194;17.150;2022-07-03T16:04:09;37.10;68.00
17632;DHT22;8934;51.194;17.150;2022-07-03T16:06:59;37.40;64.60
17632;DHT22;8934;51.194;17.150;2022-07-03T16:09:47;37.30;65.70
17632;DHT22;8934;51.194;17.150;2022-07-03T16:12:35;37.40;66.90
17632;DHT22;8934;51.194;17.150;2022-07-03T16:15:26;37.60;66.40
17632;DHT22;8934;51.194;17.150;2022-07-03T16:18:16;37.60;63.40
17632;DHT22;8934;51.194;17.150;2022-07-03T16:21:05;37.70;65.30
17632;DHT22;8934;51.194;17.150;2022-07-03T16:23:55;37.30;64.70
17632;DHT22;8934;51.194;17.150;2022-07-03T16:26:43;37.30;65.00
17632;DHT22;8934;51.194;17.150;2022-07-03T16:29:40;37.60;66.80
17632;DHT22;8934;51.194;17.150;2022-07-03T16:32:34;38.00;62.30
17632;DHT22;8934;51.194;17.150;2022-07-03T16:35:27;38.00;61.20
17632;DHT22;8934;51.194;17.150;2022-07-03T16:38:22;38.10;62.20
17632;DHT22;8934;51.194;17.150;2022-07-03T16:41:12;38.20;63.80
17632;DHT22;8934;51.194;17.150;2022-07-03T16:44:04;37.90;61.20
17632;DHT22;8934;51.194;17.150;2022-07-03T16:46:53;38.00;61.20
17632;DHT22;8934;51.194;17.150;2022-07-03T16:49:42;38.10;62.90
17632;DHT22;8934;51.194;17.150;2022-07-03T16:52:32;38.30;60.00
17632;DHT22;8934;51.194;17.150;2022-07-03T16:55:22;38.30;65.50
17632;DHT22;8934;51.194;17.150;2022-07-03T16:58:12;38.10;61.90
17632;DHT22;8934;51.194;17.150;2022-07-03T17:01:04;37.70;61.70
17632;DHT22;8934;51.194;17.150;2022-07-03T17:03:52;37.20;61.00
17632;DHT22;8934;51.194;17.150;2022-07-03T17:06:43;36.30;65.40
17632;DHT22;8934;51.194;17.150;2022-07-03T17:09:37;35.80;63.00
17632;DHT22;8934;51.194;17.150;2022-07-03T17:12:25;35.40;65.90
17632;DHT22;8934;51.194;17.150;2022-07-03T17:15:16;35.10;64.30
17632;DHT22;8934;51.194;17.150;2022-07-03T17:18:06;35.10;68.60
17632;DHT22;8934;51.194;17.150;2022-07-03T17:21:01;35.30;66.60
17632;DHT22;8934;51.194;17.150;2022-07-03T17:23:50;35.00;66.80
17632;DHT22;8934;51.194;17.150;2022-07-03T17:26:41;35.10;67.10
17632;DHT22;8934;51.194;17.150;2022-07-03T17:29:36;35.20;67.30
17632;DHT22;8934;51.194;17.150;2022-07-03T17:32:29;35.30;69.80
17632;DHT22;8934;51.194;17.150;2022-07-03T17:35:18;35.30;67.40
17632;DHT22;8934;51.194;17.150;2022-07-03T17:38:09;35.30;69.00
17632;DHT22;8934;51.194;17.150;2022-07-03T17:41:21;35.10;72.30
17632;DHT22;8934;51.194;17.150;2022-07-03T17:44:09;34.80;68.10
17632;DHT22;8934;51.194;17.150;2022-07-03T17:46:58;34.70;73.60
17632;DHT22;8934;51.194;17.150;2022-07-03T17:49:49;34.70;73.00
17632;DHT22;8934;51.194;17.150;2022-07-03T17:52:40;34.70;71.80
17632;DHT22;8934;51.194;17.150;2022-07-03T17:55:28;34.20;70.90
17632;DHT22;8934;51.194;17.150;2022-07-03T17:58:35;33.80;72.40
17632;DHT22;8934;51.194;17.150;2022-07-03T18:01:22;33.60;72.80
17632;DHT22;8934;51.194;17.150;2022-07-03T18:04:10;33.50;73.80